sensor_id;sensor_type;location;lat;lon;timestamp;temperature;humidity
34406;DHT22;20658;45.630;8.886;2023-07-13T00:02:31;19.50;99.90
34406;DHT22;20658;45.630;8.886;2023-07-13T00:05:05;19.50;99.90
34406;DHT22;20658;45.630;8.886;2023-07-13T00:07:41;19.50;99.90
34406;DHT22;20658;45.630;8.886;2023-07-13T00:10:15;19.50;99.90
34406;DHT22;20658;45.630;8.886;2023-07-13T00:12:49;19.50;99.90
34406;DHT22;20658;45.630;8.886;2023-07-13T00:15:27;19.40;99.90
34406;DHT22;20658;45.630;8.886;2023-07-13T00:18:01;19.40;99.90
34406;DHT22;20658;45.630;8.886;2023-07-13T00:20:35;19.40;99.90
34406;DHT22;20658;45.630;8.886;2023-07-13T00:23:10;19.30;99.90
34406;DHT22;20658;45.630;8.886;2023-07-13T00:25:44;19.30;99.90
34406;DHT22;20658;45.630;8.886;2023-07-13T00:28:18;19.30;99.90
34406;DHT22;20658;45.630;8.886;2023-07-13T00:30:51;19.30;99.90
34406;DHT22;20658;45.630;8.886;2023-07-13T00:33:27;19.20;99.90
34406;DHT22;20658;45.630;8.886;2023-07-13T00:36:01;19.30;99.90
34406;DHT22;20658;45.630;8.886;2023-07-13T00:38:36;19.30;99.90
34406;DHT22;20658;45.630;8.886;2023-07-13T00:41:10;19.30;99.90
34406;DHT22;20658;45.630;8.886;2023-07-13T00:43:43;19.30;99.90
34406;DHT22;20658;45.630;8.886;2023-07-13T00:46:24;19.30;99.90
34406;DHT22;20658;45.630;8.886;2023-07-13T00:49:00;19.30;99.90
34406;DHT22;20658;45.630;8.886;2023-07-13T00:51:40;19.30;99.90
34406;DHT22;20658;45.630;8.886;2023-07-13T00:54:22;19.40;99.90
34406;DHT22;20658;45.630;8.886;2023-07-13T00:56:59;19.40;99.90
34406;DHT22;20658;45.630;8.886;2023-07-13T00:59:36;19.40;99.90
34406;DHT22;20658;45.630;8.886;2023-07-13T01:02:13;19.40;99.90
34406;DHT22;20658;45.630;8.886;2023-07-13T01:04:48;19.40;99.90
34406;DHT22;20658;45.630;8.886;2023-07-13T01:07:22;19.50;99.90
34406;DHT22;20658;45.630;8.886;2023-07-13T01:09:58;19.50;99.90
34406;DHT22;20658;45.630;8.886;2023-07-13T01:12:31;19.40;99.90
34406;DHT22;20658;45.630;8.886;2023-07-13T01:15:32;19.40;99.90
34406;DHT22;20658;45.630;8.886;2023-07-13T01:18:15;19.50;99.90
34406;DHT22;20658;45.630;8.886;2023-07-13T01:20:53;19.50;99.90
34406;DHT22;20658;45.630;8.886;2023-07-13T01:23:29;19.50;99.90
34406;DHT22;20658;45.630;8.886;2023-07-13T01:26:03;19.40;99.90
34406;DHT22;20658;45.630;8.886;2023-07-13T01:28:36;19.40;99.90
34406;DHT22;20658;45.630;8.886;2023-07-13T01:31:12;19.40;99.90
34406;DHT22;20658;45.630;8.886;2023-07-13T01:33:45;19.40;99.90
34406;DHT22;20658;45.630;8.886;2023-07-13T01:36:22;19.50;99.90
34406;DHT22;20658;45.630;8.886;2023-07-13T01:38:55;19.50;99.90
34406;DHT22;20658;45.630;8.886;2023-07-13T01:41:29;19.50;99.90
34406;DHT22;20658;45.630;8.886;2023-07-13T01:44:03;19.50;99.90
34406;DHT22;20658;45.630;8.886;2023-07-13T01:46:37;19.50;99.90
34406;DHT22;20658;45.630;8.886;2023-07-13T01:49:10;19.50;99.90
34406;DHT22;20658;45.630;8.886;2023-07-13T01:51:45;19.50;99.90
34406;DHT22;20658;45.630;8.886;2023-07-13T01:54:14;19.60;99.90
34406;DHT22;20658;45.630;8.886;2023-07-13T01:56:50;19.60;99.90
34406;DHT22;20658;45.630;8.886;2023-07-13T01:59:23;19.60;99.90
34406;DHT22;20658;45.630;8.886;2023-07-13T02:01:57;19.60;99.90
34406;DHT22;20658;45.630;8.886;2023-07-13T02:04:31;19.50;99.90
34406;DHT22;20658;45.630;8.886;2023-07-13T02:07:01;19.60;99.90
34406;DHT22;20658;45.630;8.886;2023-07-13T02:09:29;19.60;99.90
34406;DHT22;20658;45.630;8.886;2023-07-13T02:12:04;19.60;99.90
34406;DHT22;20658;45.630;8.886;2023-07-13T02:14:38;19.60;99.90
34406;DHT22;20658;45.630;8.886;2023-07-13T02:17:12;19.60;99.90
34406;DHT22;20658;45.630;8.886;2023-07-13T02:19:46;19.60;99.90
34406;DHT22;20658;45.630;8.886;2023-07-13T02:22:16;19.60;99.90
34406;DHT22;20658;45.630;8.886;2023-07-13T02:24:50;19.60;99.90
34406;DHT22;20658;45.630;8.886;2023-07-13T02:27:18;19.60;99.90
34406;DHT22;20658;45.630;8.886;2023-07-13T02:29:52;19.60;99.90
34406;DHT22;20658;45.630;8.886;2023-07-13T02:32:21;19.60;99.90
34406;DHT22;20658;45.630;8.886;2023-07-13T02:34:52;19.60;99.90
34406;DHT22;20658;45.630;8.886;2023-07-13T02:37:23;19.70;99.90
34406;DHT22;20658;45.630;8.886;2023-07-13T02:39:51;19.60;99.90
34406;DHT22;20658;45.630;8.886;2023-07-13T02:42:26;19.60;99.90
34406;DHT22;20658;45.630;8.886;2023-07-13T02:44:54;19.60;99.90
34406;DHT22;20658;45.630;8.886;2023-07-13T02:47:23;19.50;99.90
34406;DHT22;20658;45.630;8.886;2023-07-13T02:49:57;19.50;99.90
34406;DHT22;20658;45.630;8.886;2023-07-13T02:52:27;19.50;99.90
34406;DHT22;20658;45.630;8.886;2023-07-13T02:55:00;19.50;99.90
34406;DHT22;20658;45.630;8.886;2023-07-13T02:57:34;19.60;99.90
34406;DHT22;20658;45.630;8.886;2023-07-13T03:00:09;19.50;99.90
34406;DHT22;20658;45.630;8.886;2023-07-13T03:02:44;19.50;99.90
34406;DHT22;20658;45.630;8.886;2023-07-13T03:05:12;19.50;99.90
34406;DHT22;20658;45.630;8.886;2023-07-13T03:07:48;19.40;99.90
34406;DHT22;20658;45.630;8.886;2023-07-13T03:10:22;19.50;99.90
34406;DHT22;20658;45.630;8.886;2023-07-13T03:12:51;19.40;99.90
34406;DHT22;20658;45.630;8.886;2023-07-13T03:15:23;19.40;99.90
34406;DHT22;20658;45.630;8.886;2023-07-13T03:17:54;19.50;99.90
34406;DHT22;20658;45.630;8.886;2023-07-13T03:20:27;19.40;99.90
34406;DHT22;20658;45.630;8.886;2023-07-13T03:23:04;19.40;99.90
34406;DHT22;20658;45.630;8.886;2023-07-13T03:25:33;19.30;99.90
34406;DHT22;20658;45.630;8.886;2023-07-13T03:28:07;19.30;99.90
34406;DHT22;20658;45.630;8.886;2023-07-13T03:30:42;19.30;99.90
34406;DHT22;20658;45.630;8.886;2023-07-13T03:33:11;19.30;99.90
34406;DHT22;20658;45.630;8.886;2023-07-13T03:35:44;19.20;99.90
34406;DHT22;20658;45.630;8.886;2023-07-13T03:38:15;19.30;99.90
34406;DHT22;20658;45.630;8.886;2023-07-13T03:40:48;19.20;99.90
34406;DHT22;20658;45.630;8.886;2023-07-13T03:43:22;19.20;99.90
34406;DHT22;20658;45.630;8.886;2023-07-13T03:45:55;19.20;99.90
34406;DHT22;20658;45.630;8.886;2023-07-13T03:48:29;19.20;99.90
34406;DHT22;20658;45.630;8.886;2023-07-13T03:51:03;19.20;99.90
34406;DHT22;20658;45.630;8.886;2023-07-13T03:53:39;19.20;99.90
34406;DHT22;20658;45.630;8.886;2023-07-13T03:56:15;19.20;99.90
34406;DHT22;20658;45.630;8.886;2023-07-13T03:58:50;19.20;99.90
34406;DHT22;20658;45.630;8.886;2023-07-13T04:01:24;19.20;99.90
34406;DHT22;20658;45.630;8.886;2023-07-13T04:03:58;19.20;99.90
34406;DHT22;20658;45.630;8.886;2023-07-13T04:06:32;19.20;99.90
34406;DHT22;20658;45.630;8.886;2023-07-13T04:09:04;19.20;99.90
34406;DHT22;20658;45.630;8.886;2023-07-13T04:11:38;19.20;99.90
34406;DHT22;20658;45.630;8.886;2023-07-13T04:14:12;19.30;99.90
34406;DHT22;20658;45.630;8.886;2023-07-13T04:16:41;19.20;99.90
34406;DHT22;20658;45.630;8.886;2023-07-13T04:19:15;19.20;99.90
34406;DHT22;20658;45.630;8.886;2023-07-13T04:21:48;19.20;99.90
34406;DHT22;20658;45.630;8.886;2023-07-13T04:24:18;19.20;99.90
34406;DHT22;20658;45.630;8.886;2023-07-13T04:26:52;19.20;99.90
34406;DHT22;20658;45.630;8.886;2023-07-13T04:29:25;19.30;99.90
34406;DHT22;20658;45.630;8.886;2023-07-13T04:31:59;19.30;99.90
34406;DHT22;20658;45.630;8.886;2023-07-13T04:34:32;19.30;99.90
34406;DHT22;20658;45.630;8.886;2023-07-13T04:37:06;19.40;99.90
34406;DHT22;20658;45.630;8.886;2023-07-13T04:39:41;19.40;99.90
34406;DHT22;20658;45.630;8.886;2023-07-13T04:42:15;19.40;99.90
34406;DHT22;20658;45.630;8.886;2023-07-13T04:44:48;19.50;99.90
34406;DHT22;20658;45.630;8.886;2023-07-13T04:47:22;19.50;99.90
34406;DHT22;20658;45.630;8.886;2023-07-13T04:49:56;19.40;99.90
34406;DHT22;20658;45.630;8.886;2023-07-13T04:52:29;19.50;99.90
34406;DHT22;20658;45.630;8.886;2023-07-13T04:55:07;19.60;99.90
34406;DHT22;20658;45.630;8.886;2023-07-13T04:57:41;19.60;99.90
34406;DHT22;20658;45.630;8.886;2023-07-13T05:00:10;19.70;99.90
34406;DHT22;20658;45.630;8.886;2023-07-13T05:02:45;19.90;99.90
34406;DHT22;20658;45.630;8.886;2023-07-13T05:05:18;20.10;99.90
34406;DHT22;20658;45.630;8.886;2023-07-13T05:07:52;20.20;99.90
34406;DHT22;20658;45.630;8.886;2023-07-13T05:10:27;20.20;99.90
34406;DHT22;20658;45.630;8.886;2023-07-13T05:13:00;20.30;99.90
34406;DHT22;20658;45.630;8.886;2023-07-13T05:15:34;20.40;99.90
34406;DHT22;20658;45.630;8.886;2023-07-13T05:18:08;20.60;99.90
34406;DHT22;20658;45.630;8.886;2023-07-13T05:20:42;20.80;99.90
34406;DHT22;20658;45.630;8.886;2023-07-13T05:23:15;21.00;99.90
34406;DHT22;20658;45.630;8.886;2023-07-13T05:25:50;21.40;99.90
34406;DHT22;20658;45.630;8.886;2023-07-13T05:28:24;21.60;99.90
34406;DHT22;20658;45.630;8.886;2023-07-13T05:30:57;21.70;99.90
34406;DHT22;20658;45.630;8.886;2023-07-13T05:33:31;21.60;99.90
34406;DHT22;20658;45.630;8.886;2023-07-13T05:36:05;21.50;99.90
34406;DHT22;20658;45.630;8.886;2023-07-13T05:38:57;21.50;99.90
34406;DHT22;20658;45.630;8.886;2023-07-13T05:41:50;21.30;99.90
34406;DHT22;20658;45.630;8.886;2023-07-13T05:44:30;21.20;99.90
34406;DHT22;20658;45.630;8.886;2023-07-13T05:47:03;21.10;99.90
34406;DHT22;20658;45.630;8.886;2023-07-13T05:49:38;21.10;99.90
34406;DHT22;20658;45.630;8.886;2023-07-13T05:52:11;21.20;99.90
34406;DHT22;20658;45.630;8.886;2023-07-13T05:54:45;21.20;99.90
34406;DHT22;20658;45.630;8.886;2023-07-13T05:57:19;21.20;99.90
34406;DHT22;20658;45.630;8.886;2023-07-13T05:59:53;21.20;99.90
34406;DHT22;20658;45.630;8.886;2023-07-13T06:02:27;21.10;99.90
34406;DHT22;20658;45.630;8.886;2023-07-13T06:05:01;21.70;99.90
34406;DHT22;20658;45.630;8.886;2023-07-13T06:07:34;22.40;99.90
34406;DHT22;20658;45.630;8.886;2023-07-13T06:10:09;23.20;98.50
34406;DHT22;20658;45.630;8.886;2023-07-13T06:12:44;23.10;96.40
34406;DHT22;20658;45.630;8.886;2023-07-13T06:15:17;23.40;96.20
34406;DHT22;20658;45.630;8.886;2023-07-13T06:17:51;23.50;94.20
34406;DHT22;20658;45.630;8.886;2023-07-13T06:20:24;23.60;94.10
34406;DHT22;20658;45.630;8.886;2023-07-13T06:22:58;23.60;93.10
34406;DHT22;20658;45.630;8.886;2023-07-13T06:25:31;23.80;93.80
34406;DHT22;20658;45.630;8.886;2023-07-13T06:28:06;24.00;92.10
34406;DHT22;20658;45.630;8.886;2023-07-13T06:30:39;24.40;91.70
34406;DHT22;20658;45.630;8.886;2023-07-13T06:33:13;24.70;89.90
34406;DHT22;20658;45.630;8.886;2023-07-13T06:35:46;25.00;86.70
34406;DHT22;20658;45.630;8.886;2023-07-13T06:38:20;25.00;85.20
34406;DHT22;20658;45.630;8.886;2023-07-13T06:40:53;25.10;85.20
34406;DHT22;20658;45.630;8.886;2023-07-13T06:43:28;25.30;84.80
34406;DHT22;20658;45.630;8.886;2023-07-13T06:46:03;25.30;81.50
34406;DHT22;20658;45.630;8.886;2023-07-13T06:48:37;25.40;81.80
34406;DHT22;20658;45.630;8.886;2023-07-13T06:51:10;25.80;80.00
34406;DHT22;20658;45.630;8.886;2023-07-13T06:53:44;25.80;78.10
34406;DHT22;20658;45.630;8.886;2023-07-13T06:56:18;25.80;77.60
34406;DHT22;20658;45.630;8.886;2023-07-13T06:58:53;25.90;78.00
34406;DHT22;20658;45.630;8.886;2023-07-13T07:01:26;26.00;76.40
34406;DHT22;20658;45.630;8.886;2023-07-13T07:04:00;26.00;75.30
34406;DHT22;20658;45.630;8.886;2023-07-13T07:06:34;26.20;76.60
34406;DHT22;20658;45.630;8.886;2023-07-13T07:09:07;26.40;75.20
34406;DHT22;20658;45.630;8.886;2023-07-13T07:11:41;26.50;73.70
34406;DHT22;20658;45.630;8.886;2023-07-13T07:14:16;26.70;73.50
34406;DHT22;20658;45.630;8.886;2023-07-13T07:16:44;26.90;73.30
34406;DHT22;20658;45.630;8.886;2023-07-13T07:19:18;27.10;71.40
34406;DHT22;20658;45.630;8.886;2023-07-13T07:21:51;27.10;71.40
34406;DHT22;20658;45.630;8.886;2023-07-13T07:24:25;27.00;70.40
34406;DHT22;20658;45.630;8.886;2023-07-13T07:26:59;27.00;70.70
34406;DHT22;20658;45.630;8.886;2023-07-13T07:29:36;27.00;71.10
34406;DHT22;20658;45.630;8.886;2023-07-13T07:32:09;26.90;69.40
34406;DHT22;20658;45.630;8.886;2023-07-13T07:34:43;26.60;69.80
34406;DHT22;20658;45.630;8.886;2023-07-13T07:37:16;26.30;70.90
34406;DHT22;20658;45.630;8.886;2023-07-13T07:39:50;26.70;71.10
34406;DHT22;20658;45.630;8.886;2023-07-13T07:42:24;26.60;69.40
34406;DHT22;20658;45.630;8.886;2023-07-13T07:44:54;26.70;68.70
34406;DHT22;20658;45.630;8.886;2023-07-13T07:47:27;26.80;67.90
34406;DHT22;20658;45.630;8.886;2023-07-13T07:50:01;26.90;65.10
34406;DHT22;20658;45.630;8.886;2023-07-13T07:52:35;27.20;66.90
34406;DHT22;20658;45.630;8.886;2023-07-13T07:55:09;27.30;67.50
34406;DHT22;20658;45.630;8.886;2023-07-13T07:57:43;27.30;67.70
34406;DHT22;20658;45.630;8.886;2023-07-13T08:00:18;27.40;67.20
34406;DHT22;20658;45.630;8.886;2023-07-13T08:02:52;27.60;63.30
34406;DHT22;20658;45.630;8.886;2023-07-13T08:05:20;27.70;64.30
34406;DHT22;20658;45.630;8.886;2023-07-13T08:07:55;27.80;64.70
34406;DHT22;20658;45.630;8.886;2023-07-13T08:10:28;28.00;64.80
34406;DHT22;20658;45.630;8.886;2023-07-13T08:13:02;28.30;64.30
34406;DHT22;20658;45.630;8.886;2023-07-13T08:15:37;28.30;63.90
34406;DHT22;20658;45.630;8.886;2023-07-13T08:18:10;28.40;64.50
34406;DHT22;20658;45.630;8.886;2023-07-13T08:20:44;28.10;64.50
34406;DHT22;20658;45.630;8.886;2023-07-13T08:23:17;27.90;65.10
34406;DHT22;20658;45.630;8.886;2023-07-13T08:25:51;28.10;64.80
34406;DHT22;20658;45.630;8.886;2023-07-13T08:28:25;28.30;64.00
34406;DHT22;20658;45.630;8.886;2023-07-13T08:31:02;28.60;62.00
34406;DHT22;20658;45.630;8.886;2023-07-13T08:33:36;28.60;61.40
34406;DHT22;20658;45.630;8.886;2023-07-13T08:36:10;28.60;61.20
34406;DHT22;20658;45.630;8.886;2023-07-13T08:38:44;28.20;62.90
34406;DHT22;20658;45.630;8.886;2023-07-13T08:41:18;28.20;61.50
34406;DHT22;20658;45.630;8.886;2023-07-13T08:43:56;28.10;62.60
34406;DHT22;20658;45.630;8.886;2023-07-13T08:46:34;28.50;62.60
34406;DHT22;20658;45.630;8.886;2023-07-13T08:49:11;28.80;61.20
34406;DHT22;20658;45.630;8.886;2023-07-13T08:51:51;29.00;61.50
34406;DHT22;20658;45.630;8.886;2023-07-13T08:54:30;29.00;60.70
34406;DHT22;20658;45.630;8.886;2023-07-13T08:57:12;28.90;60.40
34406;DHT22;20658;45.630;8.886;2023-07-13T08:59:42;29.10;60.30
34406;DHT22;20658;45.630;8.886;2023-07-13T09:02:23;29.30;59.30
34406;DHT22;20658;45.630;8.886;2023-07-13T09:05:02;29.40;59.60
34406;DHT22;20658;45.630;8.886;2023-07-13T09:07:48;29.50;59.40
34406;DHT22;20658;45.630;8.886;2023-07-13T09:10:35;29.40;57.50
34406;DHT22;20658;45.630;8.886;2023-07-13T09:13:22;29.20;57.40
34406;DHT22;20658;45.630;8.886;2023-07-13T09:16:03;29.10;57.80
34406;DHT22;20658;45.630;8.886;2023-07-13T09:18:42;29.20;57.50
34406;DHT22;20658;45.630;8.886;2023-07-13T09:21:23;29.30;57.60
34406;DHT22;20658;45.630;8.886;2023-07-13T09:24:06;29.50;58.00
34406;DHT22;20658;45.630;8.886;2023-07-13T09:26:56;29.40;57.20
34406;DHT22;20658;45.630;8.886;2023-07-13T09:29:33;29.60;57.60
34406;DHT22;20658;45.630;8.886;2023-07-13T09:32:09;29.80;57.20
34406;DHT22;20658;45.630;8.886;2023-07-13T09:34:50;29.80;56.70
34406;DHT22;20658;45.630;8.886;2023-07-13T09:37:31;29.90;56.80
34406;DHT22;20658;45.630;8.886;2023-07-13T09:43:03;30.10;56.90
34406;DHT22;20658;45.630;8.886;2023-07-13T09:45:38;30.40;57.00
34406;DHT22;20658;45.630;8.886;2023-07-13T09:48:13;30.70;56.00
34406;DHT22;20658;45.630;8.886;2023-07-13T09:50:49;30.90;55.60
34406;DHT22;20658;45.630;8.886;2023-07-13T09:53:31;31.00;55.40
34406;DHT22;20658;45.630;8.886;2023-07-13T09:56:11;31.00;55.40
34406;DHT22;20658;45.630;8.886;2023-07-13T09:58:52;31.00;54.30
34406;DHT22;20658;45.630;8.886;2023-07-13T10:01:34;31.10;53.40
34406;DHT22;20658;45.630;8.886;2023-07-13T10:04:12;31.00;53.70
34406;DHT22;20658;45.630;8.886;2023-07-13T10:06:47;31.20;53.20
34406;DHT22;20658;45.630;8.886;2023-07-13T10:09:21;31.40;53.20
34406;DHT22;20658;45.630;8.886;2023-07-13T10:11:55;31.20;52.60
34406;DHT22;20658;45.630;8.886;2023-07-13T10:14:29;31.20;53.20
34406;DHT22;20658;45.630;8.886;2023-07-13T10:17:04;31.40;53.10
34406;DHT22;20658;45.630;8.886;2023-07-13T10:19:40;31.40;52.50
34406;DHT22;20658;45.630;8.886;2023-07-13T10:22:24;31.30;52.70
34406;DHT22;20658;45.630;8.886;2023-07-13T10:25:00;31.30;53.00
34406;DHT22;20658;45.630;8.886;2023-07-13T10:27:33;31.30;53.60
34406;DHT22;20658;45.630;8.886;2023-07-13T10:30:14;31.10;52.70
34406;DHT22;20658;45.630;8.886;2023-07-13T10:32:50;31.00;54.00
34406;DHT22;20658;45.630;8.886;2023-07-13T10:35:25;31.20;53.90
34406;DHT22;20658;45.630;8.886;2023-07-13T10:38:05;31.40;53.00
34406;DHT22;20658;45.630;8.886;2023-07-13T10:40:50;31.40;52.30
34406;DHT22;20658;45.630;8.886;2023-07-13T10:43:33;31.50;53.20
34406;DHT22;20658;45.630;8.886;2023-07-13T10:46:12;31.70;52.20
34406;DHT22;20658;45.630;8.886;2023-07-13T10:48:50;32.00;52.30
34406;DHT22;20658;45.630;8.886;2023-07-13T10:51:26;31.90;51.10
34406;DHT22;20658;45.630;8.886;2023-07-13T10:54:20;31.90;51.20
34406;DHT22;20658;45.630;8.886;2023-07-13T10:57:17;31.90;50.60
34406;DHT22;20658;45.630;8.886;2023-07-13T11:00:14;31.80;51.90
34406;DHT22;20658;45.630;8.886;2023-07-13T11:02:56;32.10;51.60
34406;DHT22;20658;45.630;8.886;2023-07-13T11:05:33;32.00;51.30
34406;DHT22;20658;45.630;8.886;2023-07-13T11:08:18;32.00;51.40
34406;DHT22;20658;45.630;8.886;2023-07-13T11:10:56;32.00;52.30
34406;DHT22;20658;45.630;8.886;2023-07-13T11:13:58;31.70;52.90
34406;DHT22;20658;45.630;8.886;2023-07-13T11:16:37;32.00;52.50
34406;DHT22;20658;45.630;8.886;2023-07-13T11:19:38;32.30;52.50
34406;DHT22;20658;45.630;8.886;2023-07-13T11:22:15;32.50;52.00
34406;DHT22;20658;45.630;8.886;2023-07-13T11:25:01;32.10;53.30
34406;DHT22;20658;45.630;8.886;2023-07-13T11:27:42;32.00;53.60
34406;DHT22;20658;45.630;8.886;2023-07-13T11:30:42;32.20;53.40
34406;DHT22;20658;45.630;8.886;2023-07-13T11:33:19;32.50;51.60
34406;DHT22;20658;45.630;8.886;2023-07-13T11:36:00;32.80;51.50
34406;DHT22;20658;45.630;8.886;2023-07-13T11:38:39;32.60;51.90
34406;DHT22;20658;45.630;8.886;2023-07-13T11:41:16;32.50;52.30
34406;DHT22;20658;45.630;8.886;2023-07-13T11:44:04;32.60;52.10
34406;DHT22;20658;45.630;8.886;2023-07-13T11:46:45;32.60;51.30
34406;DHT22;20658;45.630;8.886;2023-07-13T11:49:21;32.70;51.10
34406;DHT22;20658;45.630;8.886;2023-07-13T11:51:57;32.10;52.30
34406;DHT22;20658;45.630;8.886;2023-07-13T11:54:33;31.50;53.60
34406;DHT22;20658;45.630;8.886;2023-07-13T11:57:23;31.10;54.70
34406;DHT22;20658;45.630;8.886;2023-07-13T12:00:09;30.70;54.90
34406;DHT22;20658;45.630;8.886;2023-07-13T12:02:48;30.50;54.90
34406;DHT22;20658;45.630;8.886;2023-07-13T12:05:23;30.30;55.80
34406;DHT22;20658;45.630;8.886;2023-07-13T12:07:57;29.90;55.90
34406;DHT22;20658;45.630;8.886;2023-07-13T12:10:31;29.80;56.40
34406;DHT22;20658;45.630;8.886;2023-07-13T12:13:05;29.80;56.50
34406;DHT22;20658;45.630;8.886;2023-07-13T12:15:43;29.70;57.00
34406;DHT22;20658;45.630;8.886;2023-07-13T12:18:20;29.20;58.70
34406;DHT22;20658;45.630;8.886;2023-07-13T12:20:58;29.00;58.90
34406;DHT22;20658;45.630;8.886;2023-07-13T12:23:33;29.00;58.90
34406;DHT22;20658;45.630;8.886;2023-07-13T12:26:09;28.90;58.70
34406;DHT22;20658;45.630;8.886;2023-07-13T12:28:47;28.80;59.50
34406;DHT22;20658;45.630;8.886;2023-07-13T12:31:33;28.60;60.00
34406;DHT22;20658;45.630;8.886;2023-07-13T12:34:09;28.60;60.10
34406;DHT22;20658;45.630;8.886;2023-07-13T12:36:47;28.70;60.20
34406;DHT22;20658;45.630;8.886;2023-07-13T12:39:24;28.70;60.30
34406;DHT22;20658;45.630;8.886;2023-07-13T12:42:17;28.70;60.50
34406;DHT22;20658;45.630;8.886;2023-07-13T12:44:58;28.50;61.10
34406;DHT22;20658;45.630;8.886;2023-07-13T12:47:41;28.50;61.50
34406;DHT22;20658;45.630;8.886;2023-07-13T12:50:19;28.30;62.00
34406;DHT22;20658;45.630;8.886;2023-07-13T12:53:02;28.10;63.30
34406;DHT22;20658;45.630;8.886;2023-07-13T12:55:43;28.00;64.00
34406;DHT22;20658;45.630;8.886;2023-07-13T12:58:30;28.00;64.60
34406;DHT22;20658;45.630;8.886;2023-07-13T13:01:06;27.90;64.40
34406;DHT22;20658;45.630;8.886;2023-07-13T13:03:46;28.20;64.80
34406;DHT22;20658;45.630;8.886;2023-07-13T13:06:25;28.30;64.80
34406;DHT22;20658;45.630;8.886;2023-07-13T13:09:00;28.30;64.50
34406;DHT22;20658;45.630;8.886;2023-07-13T13:11:35;28.40;64.50
34406;DHT22;20658;45.630;8.886;2023-07-13T13:14:09;28.80;63.70
34406;DHT22;20658;45.630;8.886;2023-07-13T13:16:48;29.50;61.20
34406;DHT22;20658;45.630;8.886;2023-07-13T13:19:26;29.50;60.10
34406;DHT22;20658;45.630;8.886;2023-07-13T13:22:01;29.50;60.60
34406;DHT22;20658;45.630;8.886;2023-07-13T13:24:34;29.40;61.00
34406;DHT22;20658;45.630;8.886;2023-07-13T13:27:17;29.30;62.80
34406;DHT22;20658;45.630;8.886;2023-07-13T13:29:52;29.50;62.50
34406;DHT22;20658;45.630;8.886;2023-07-13T13:32:26;29.50;62.10
34406;DHT22;20658;45.630;8.886;2023-07-13T13:35:01;28.90;63.00
34406;DHT22;20658;45.630;8.886;2023-07-13T13:37:35;29.20;63.20
34406;DHT22;20658;45.630;8.886;2023-07-13T13:40:14;30.00;61.80
34406;DHT22;20658;45.630;8.886;2023-07-13T13:42:49;30.40;59.10
34406;DHT22;20658;45.630;8.886;2023-07-13T13:45:25;30.50;57.30
34406;DHT22;20658;45.630;8.886;2023-07-13T13:47:59;30.70;57.20
34406;DHT22;20658;45.630;8.886;2023-07-13T13:50:34;30.90;56.00
34406;DHT22;20658;45.630;8.886;2023-07-13T13:53:10;30.90;54.90
34406;DHT22;20658;45.630;8.886;2023-07-13T13:55:45;31.00;56.00
34406;DHT22;20658;45.630;8.886;2023-07-13T13:58:19;31.30;55.10
34406;DHT22;20658;45.630;8.886;2023-07-13T14:00:52;31.70;54.10
34406;DHT22;20658;45.630;8.886;2023-07-13T14:03:26;32.20;53.50
34406;DHT22;20658;45.630;8.886;2023-07-13T14:06:01;32.20;53.40
34406;DHT22;20658;45.630;8.886;2023-07-13T14:08:35;32.30;52.90
34406;DHT22;20658;45.630;8.886;2023-07-13T14:11:04;32.40;53.40
34406;DHT22;20658;45.630;8.886;2023-07-13T14:13:40;32.30;53.40
34406;DHT22;20658;45.630;8.886;2023-07-13T14:16:17;32.50;52.50
34406;DHT22;20658;45.630;8.886;2023-07-13T14:18:52;32.80;51.90
34406;DHT22;20658;45.630;8.886;2023-07-13T14:21:30;33.10;51.60
34406;DHT22;20658;45.630;8.886;2023-07-13T14:24:03;33.00;51.00
34406;DHT22;20658;45.630;8.886;2023-07-13T14:26:39;32.60;51.10
34406;DHT22;20658;45.630;8.886;2023-07-13T14:29:16;32.50;50.80
34406;DHT22;20658;45.630;8.886;2023-07-13T14:31:51;32.80;51.10
34406;DHT22;20658;45.630;8.886;2023-07-13T14:34:24;33.00;50.00
34406;DHT22;20658;45.630;8.886;2023-07-13T14:36:59;33.00;49.00
34406;DHT22;20658;45.630;8.886;2023-07-13T14:39:33;32.30;49.40
34406;DHT22;20658;45.630;8.886;2023-07-13T14:42:09;32.30;50.70
34406;DHT22;20658;45.630;8.886;2023-07-13T14:44:43;32.40;50.80
34406;DHT22;20658;45.630;8.886;2023-07-13T14:47:18;32.20;50.90
34406;DHT22;20658;45.630;8.886;2023-07-13T14:49:51;32.30;50.40
34406;DHT22;20658;45.630;8.886;2023-07-13T14:52:26;32.70;49.60
34406;DHT22;20658;45.630;8.886;2023-07-13T14:54:59;33.10;49.50
34406;DHT22;20658;45.630;8.886;2023-07-13T14:57:33;33.40;48.80
34406;DHT22;20658;45.630;8.886;2023-07-13T15:00:13;33.40;48.70
34406;DHT22;20658;45.630;8.886;2023-07-13T15:02:48;33.60;47.70
34406;DHT22;20658;45.630;8.886;2023-07-13T15:05:27;33.40;47.80
34406;DHT22;20658;45.630;8.886;2023-07-13T15:08:04;33.30;48.10
34406;DHT22;20658;45.630;8.886;2023-07-13T15:10:37;33.40;48.00
34406;DHT22;20658;45.630;8.886;2023-07-13T15:13:19;33.50;48.50
34406;DHT22;20658;45.630;8.886;2023-07-13T15:15:53;33.80;47.90
34406;DHT22;20658;45.630;8.886;2023-07-13T15:18:28;33.60;45.60
34406;DHT22;20658;45.630;8.886;2023-07-13T15:21:01;33.90;45.80
34406;DHT22;20658;45.630;8.886;2023-07-13T15:23:37;34.20;45.60
34406;DHT22;20658;45.630;8.886;2023-07-13T15:26:12;34.50;45.10
34406;DHT22;20658;45.630;8.886;2023-07-13T15:28:47;34.40;45.20
34406;DHT22;20658;45.630;8.886;2023-07-13T15:31:20;34.00;46.20
34406;DHT22;20658;45.630;8.886;2023-07-13T15:33:57;34.30;46.20
34406;DHT22;20658;45.630;8.886;2023-07-13T15:36:31;34.80;46.20
34406;DHT22;20658;45.630;8.886;2023-07-13T15:39:06;34.90;45.90
34406;DHT22;20658;45.630;8.886;2023-07-13T15:41:43;35.30;45.90
34406;DHT22;20658;45.630;8.886;2023-07-13T15:44:23;35.40;44.80
34406;DHT22;20658;45.630;8.886;2023-07-13T15:46:58;35.00;45.80
34406;DHT22;20658;45.630;8.886;2023-07-13T15:49:35;34.90;45.10
34406;DHT22;20658;45.630;8.886;2023-07-13T15:52:04;35.00;44.90
34406;DHT22;20658;45.630;8.886;2023-07-13T15:54:39;35.00;45.00
34406;DHT22;20658;45.630;8.886;2023-07-13T15:57:13;35.10;44.40
34406;DHT22;20658;45.630;8.886;2023-07-13T15:59:46;34.90;43.40
34406;DHT22;20658;45.630;8.886;2023-07-13T16:02:17;35.30;44.50
34406;DHT22;20658;45.630;8.886;2023-07-13T16:04:53;35.50;43.60
34406;DHT22;20658;45.630;8.886;2023-07-13T16:07:26;35.60;43.10
34406;DHT22;20658;45.630;8.886;2023-07-13T16:10:01;35.80;42.40
34406;DHT22;20658;45.630;8.886;2023-07-13T16:12:35;35.80;41.70
34406;DHT22;20658;45.630;8.886;2023-07-13T16:15:13;35.30;42.00
34406;DHT22;20658;45.630;8.886;2023-07-13T16:17:48;35.40;42.30
34406;DHT22;20658;45.630;8.886;2023-07-13T16:20:18;35.10;42.50
34406;DHT22;20658;45.630;8.886;2023-07-13T16:22:54;35.00;42.90
34406;DHT22;20658;45.630;8.886;2023-07-13T16:25:29;34.70;43.40
34406;DHT22;20658;45.630;8.886;2023-07-13T16:28:04;35.30;42.70